Time;durP1;ratioP1;P1;durP2;ratioP2;P2;SDS_P1;SDS_P2;PMS_P1;PMS_P2;Temp;Humidity;BMP_temperature;BMP_pressure;BME280_temperature;BME280_humidity;BME280_pressure;Samples;Min_cycle;Max_cycle;Signal;HPM_P1;HPM_P2
2021/07/24 00:04:22;;;;;;;;;;;19.60;99.90;;;18.48;68.33;95311.03;10360105;28;2383;-79
2021/07/24 00:09:25;;;;;;;;;;;19.50;99.90;;;18.34;69.36;95308.59;10353496;28;2253;-80
2021/07/24 00:14:28;;;;;;;;;;;19.40;99.90;;;18.20;69.30;95302.66;10327849;28;2227;-80
2021/07/24 00:19:30;;;;;;;;;;;19.30;99.90;;;18.07;69.63;95304.50;10335392;28;2163;-80
2021/07/24 00:24:33;;;;;;;;;;;19.20;99.90;;;18.10;69.89;95301.91;10339225;28;1983;-82
2021/07/24 00:29:36;;;;;;;;;;;19.20;99.90;;;18.02;70.43;95288.41;10340586;28;2430;-80
2021/07/24 00:34:39;;;;;;;;;;;19.10;99.90;;;17.94;71.12;95283.78;10356929;28;2371;-78
2021/07/24 00:39:41;;;;;;;;;;;19.00;99.90;;;17.99;70.35;95280.88;10361372;28;2312;-80
2021/07/24 00:44:46;;;;;;;;;;;19.00;99.90;;;17.98;70.49;95279.28;10336646;28;2323;-80
2021/07/24 00:49:49;;;;;;;;;;;19.00;99.90;;;17.89;71.02;95259.56;10338376;28;2610;-81
2021/07/24 00:54:52;;;;;;;;;;;19.00;99.90;;;17.94;71.20;95251.16;10347755;28;2569;-80
2021/07/24 00:59:54;;;;;;;;;;;18.90;99.90;;;17.84;70.93;95246.94;10338875;28;2621;-81
2021/07/24 01:04:57;;;;;;;;;;;18.90;99.90;;;17.80;71.17;95252.25;10337814;28;2893;-79
2021/07/24 01:10:00;;;;;;;;;;;18.80;99.90;;;18.22;70.54;95252.22;10335551;28;2582;-79
2021/07/24 01:15:03;;;;;;;;;;;18.80;99.90;;;18.22;69.96;95245.97;10339205;28;2267;-82
2021/07/24 01:20:06;;;;;;;;;;;19.10;99.90;;;18.30;69.48;95237.72;10340243;28;2101;-81
2021/07/24 01:25:09;;;;;;;;;;;19.20;99.90;;;18.16;69.71;95231.78;10341132;28;2956;-81
2021/07/24 01:30:12;;;;;;;;;;;19.20;99.90;;;18.16;70.06;95242.66;10329219;28;1900;-79
2021/07/24 01:35:14;;;;;;;;;;;19.10;99.90;;;17.97;70.57;95234.19;10336193;28;2593;-81
2021/07/24 01:40:17;;;;;;;;;;;19.00;99.90;;;17.84;71.37;95225.19;10334660;28;2520;-80
2021/07/24 01:45:22;;;;;;;;;;;18.90;99.90;;;17.69;72.26;95232.00;10334617;28;2175;-81
2021/07/24 01:55:47;;;;;;;;;;;18.70;99.90;;;17.52;73.62;95226.69;10353435;28;2173;-80
2021/07/24 02:00:50;;;;;;;;;;;18.60;99.90;;;17.45;73.73;95219.06;10338156;28;2044;-82
2021/07/24 02:05:52;;;;;;;;;;;18.50;99.90;;;17.87;72.25;95224.50;10361419;28;2465;-78
2021/07/24 02:10:55;;;;;;;;;;;18.60;99.90;;;17.92;72.25;95216.16;10353857;28;2458;-79
2021/07/24 02:15:58;;;;;;;;;;;18.70;99.90;;;17.95;71.59;95225.59;10341875;28;2188;-79
2021/07/24 02:21:00;;;;;;;;;;;18.80;99.90;;;17.80;72.29;95213.38;10355532;28;2067;-81
2021/07/24 02:26:04;;;;;;;;;;;18.80;99.90;;;17.72;72.52;95209.63;10369511;28;1585;-81
2021/07/24 02:31:06;;;;;;;;;;;18.70;99.90;;;17.47;73.63;95230.41;10381954;28;1906;-79
2021/07/24 02:36:09;;;;;;;;;;;18.60;99.90;;;17.39;74.17;95225.81;10342439;28;2595;-80
2021/07/24 02:41:12;;;;;;;;;;;18.40;99.90;;;17.38;74.62;95228.88;10346004;28;2132;-79
2021/07/24 02:46:18;;;;;;;;;;;18.40;99.90;;;17.37;74.68;95228.09;10345845;28;2005;-81
2021/07/24 02:51:21;;;;;;;;;;;18.30;99.90;;;17.74;73.29;95226.38;10373978;28;2323;-82
2021/07/24 02:56:24;;;;;;;;;;;18.50;99.90;;;18.07;71.35;95247.41;10339735;28;2564;-80
2021/07/24 03:01:27;;;;;;;;;;;18.70;99.90;;;17.82;71.91;95255.44;10336055;28;1760;-80
2021/07/24 03:06:30;;;;;;;;;;;18.80;99.90;;;17.49;72.76;95257.22;10341967;28;2473;-80
2021/07/24 03:11:33;;;;;;;;;;;18.60;99.90;;;17.33;73.81;95246.16;10342896;28;2305;-81
2021/07/24 03:16:35;;;;;;;;;;;18.40;99.90;;;17.08;75.51;95247.88;10341622;28;2128;-81
2021/07/24 03:21:38;;;;;;;;;;;18.20;99.90;;;16.95;75.23;95248.91;10344402;28;2358;-80
2021/07/24 03:26:41;;;;;;;;;;;18.00;99.90;;;16.82;76.94;95255.34;10342149;28;2576;-81
2021/07/24 03:31:46;;;;;;;;;;;17.90;99.90;;;16.88;77.17;95254.06;10342528;28;2287;-81
2021/07/24 03:36:49;;;;;;;;;;;17.90;99.90;;;16.99;77.08;95252.59;10344767;28;2244;-81
2021/07/24 03:41:52;;;;;;;;;;;17.90;99.90;;;17.07;76.29;95240.88;10344295;28;2529;-81
2021/07/24 03:46:55;;;;;;;;;;;18.00;99.90;;;17.16;76.24;95238.88;10355897;28;2592;-81
2021/07/24 03:52:01;;;;;;;;;;;18.10;99.90;;;17.21;75.92;95246.84;10342534;28;2644;-79
2021/07/24 03:57:03;;;;;;;;;;;18.10;99.90;;;17.25;75.72;95230.72;10340967;28;2576;-80
2021/07/24 04:02:10;;;;;;;;;;;18.20;99.90;;;17.23;75.89;95228.31;10344168;28;1938;-79
2021/07/24 04:07:13;;;;;;;;;;;18.20;99.90;;;17.24;75.68;95224.50;10341474;28;2351;-80
2021/07/24 04:12:16;;;;;;;;;;;18.20;99.90;;;17.20;76.28;95214.59;10339168;28;2564;-80
2021/07/24 04:17:18;;;;;;;;;;;18.20;99.90;;;17.62;74.58;95220.84;10340245;28;1910;-80
2021/07/24 04:22:21;;;;;;;;;;;18.20;99.90;;;17.76;73.89;95226.84;10336178;28;2500;-80
2021/07/24 04:27:24;;;;;;;;;;;18.50;99.90;;;17.83;73.30;95229.84;10353847;28;2180;-81
2021/07/24 04:32:27;;;;;;;;;;;18.60;99.90;;;17.65;74.02;95231.06;10340550;28;1998;-80
2021/07/24 04:37:30;;;;;;;;;;;18.60;99.90;;;17.49;74.12;95232.78;10337542;28;2619;-79
2021/07/24 04:42:33;;;;;;;;;;;18.50;99.90;;;18.12;72.10;95239.00;10343052;28;2516;-81
2021/07/24 04:47:36;;;;;;;;;;;18.60;99.90;;;17.96;72.48;95227.19;10354332;28;1989;-79
2021/07/24 04:52:38;;;;;;;;;;;18.80;99.90;;;18.05;72.20;95227.88;10354996;28;2426;-81
2021/07/24 04:57:41;;;;;;;;;;;18.90;99.90;;;18.28;71.07;95212.78;10338708;28;1220;-82
2021/07/24 05:02:45;;;;;;;;;;;19.00;99.90;;;18.39;70.47;95196.81;10340745;28;2540;-81
2021/07/24 05:07:48;;;;;;;;;;;19.10;99.90;;;18.67;69.35;95194.28;10364212;28;2556;-80
2021/07/24 05:12:51;;;;;;;;;;;19.30;99.90;;;19.30;67.31;95196.66;10378229;28;2488;-79
2021/07/24 05:17:58;;;;;;;;;;;19.70;99.90;;;19.74;65.27;95205.78;10372719;28;1638;-78
2021/07/24 05:23:00;;;;;;;;;;;20.20;99.90;;;19.76;65.06;95217.13;10359696;28;2116;-82
2021/07/24 05:28:03;;;;;;;;;;;20.50;99.90;;;19.68;65.88;95207.97;10334836;28;2233;-81
2021/07/24 05:33:06;;;;;;;;;;;20.40;99.90;;;19.77;65.37;95205.09;10338873;28;1898;-81
2021/07/24 05:38:09;;;;;;;;;;;20.60;99.90;;;20.08;64.53;95201.66;10350120;28;1134;-79
2021/07/24 05:43:12;;;;;;;;;;;20.70;99.90;;;20.29;64.11;95197.94;10329612;28;2537;-80
2021/07/24 05:48:14;;;;;;;;;;;20.90;99.90;;;20.72;63.02;95186.22;10342682;28;1691;-80
2021/07/24 05:53:17;;;;;;;;;;;21.20;99.90;;;20.42;63.74;95175.69;10349409;28;2553;-79
2021/07/24 05:58:20;;;;;;;;;;;21.30;99.90;;;20.90;62.72;95179.25;10360352;28;2013;-81
2021/07/24 06:03:22;;;;;;;;;;;21.40;99.90;;;20.77;63.46;95164.88;10358456;28;2553;-80
2021/07/24 06:08:25;;;;;;;;;;;21.50;99.90;;;20.68;63.45;95153.38;10355628;28;2545;-79
2021/07/24 06:13:28;;;;;;;;;;;21.50;99.90;;;21.20;61.79;95167.84;10350945;28;2591;-79
2021/07/24 06:18:31;;;;;;;;;;;21.70;99.90;;;22.10;58.87;95174.88;10350503;28;1935;-78
2021/07/24 06:23:33;;;;;;;;;;;22.30;99.90;;;22.52;57.13;95184.22;10366024;28;2631;-78
2021/07/24 06:28:36;;;;;;;;;;;23.10;99.90;;;22.40;58.28;95187.94;10374220;28;2543;-78
2021/07/24 06:33:39;;;;;;;;;;;23.10;99.90;;;22.28;58.51;95207.28;10377092;28;2564;-81
2021/07/24 06:38:42;;;;;;;;;;;23.10;99.90;;;22.42;58.35;95199.31;10371094;28;2610;-82
2021/07/24 06:43:45;;;;;;;;;;;23.10;99.90;;;22.57;58.30;95181.97;10378541;28;2536;-79
2021/07/24 06:48:47;;;;;;;;;;;23.20;99.90;;;22.98;56.70;95207.00;10367562;28;2243;-79
2021/07/24 06:53:50;;;;;;;;;;;23.50;99.90;;;23.43;55.09;95230.81;10360124;28;1919;-81
2021/07/24 06:58:53;;;;;;;;;;;23.80;99.90;;;24.07;54.25;95224.66;10386970;28;2001;-79
2021/07/24 07:03:55;;;;;;;;;;;24.30;99.90;;;24.08;52.55;95226.22;10381015;28;2521;-78
2021/07/24 07:08:58;;;;;;;;;;;24.70;99.90;;;24.10;52.50;95229.38;10372593;28;2595;-81
2021/07/24 07:14:01;;;;;;;;;;;24.80;99.90;;;24.96;50.86;95248.41;10359377;28;2453;-81
2021/07/24 07:19:06;;;;;;;;;;;25.00;99.90;;;25.17;49.67;95247.81;10358439;28;2975;-79
2021/07/24 07:24:09;;;;;;;;;;;25.30;99.90;;;25.40;49.07;95250.38;10364911;28;2936;-81
2021/07/24 07:29:12;;;;;;;;;;;25.60;99.90;;;24.83;49.50;95268.31;10353502;28;2055;-82
2021/07/24 07:34:15;;;;;;;;;;;25.80;99.90;;;25.18;48.91;95265.91;10356860;28;2183;-84
2021/07/24 07:39:18;;;;;;;;;;;25.70;99.90;;;25.80;47.75;95296.31;10344251;28;2553;-82
2021/07/24 07:44:23;;;;;;;;;;;26.00;99.90;;;25.74;47.94;95311.59;10338963;28;2397;-81
2021/07/24 07:49:31;;;;;;;;;;;26.30;99.90;;;26.11;47.12;95327.19;10355011;28;2893;-81
2021/07/24 07:54:35;;;;;;;;;;;26.50;99.90;;;25.88;47.49;95338.44;10373227;28;2505;-82
2021/07/24 07:59:39;;;;;;;;;;;26.40;99.90;;;25.60;48.84;95367.28;10360079;28;2957;-80
2021/07/24 08:04:41;;;;;;;;;;;26.30;99.90;;;25.54;49.52;95363.31;10372100;28;2985;-77
2021/07/24 08:09:44;;;;;;;;;;;26.10;99.90;;;25.16;51.41;95360.97;10381287;28;2198;-81
2021/07/24 08:14:47;;;;;;;;;;;25.80;99.90;;;24.75;53.53;95344.41;10359948;28;2699;-83
2021/07/24 08:19:50;;;;;;;;;;;25.50;99.90;;;25.10;52.91;95349.53;10356164;28;2520;-83
2021/07/24 08:24:53;;;;;;;;;;;25.50;99.90;;;25.13;52.49;95339.72;10351846;28;2082;-83
2021/07/24 08:29:56;;;;;;;;;;;25.60;99.90;;;25.13;50.37;95317.72;10336640;28;2573;-81
2021/07/24 08:34:58;;;;;;;;;;;25.70;99.90;;;25.10;52.37;95311.03;10362547;28;2520;-85
2021/07/24 08:40:01;;;;;;;;;;;25.60;99.90;;;25.19;51.16;95299.69;10363406;28;2504;-83
2021/07/24 08:45:04;;;;;;;;;;;25.60;99.90;;;25.28;50.97;95311.97;10371776;28;2080;-84
2021/07/24 08:50:07;;;;;;;;;;;25.80;99.90;;;25.51;50.20;95297.22;10355334;28;2429;-82
2021/07/24 08:55:10;;;;;;;;;;;26.00;99.90;;;25.70;50.81;95294.22;10341910;28;2488;-83
2021/07/24 09:00:13;;;;;;;;;;;26.10;99.90;;;25.46;51.23;95286.59;10354010;28;1642;-82
2021/07/24 09:05:15;;;;;;;;;;;26.00;99.90;;;24.37;54.69;95274.88;10352296;28;2509;-85
2021/07/24 09:10:18;;;;;;;;;;;25.70;99.90;;;24.14;56.70;95277.69;10360429;28;2560;-85
2021/07/24 09:15:24;;;;;;;;;;;25.20;99.90;;;23.45;58.82;95268.81;10369917;28;2597;-83
2021/07/24 09:20:27;;;;;;;;;;;24.70;99.90;;;23.65;60.03;95295.03;10413531;28;2153;-82
2021/07/24 09:25:34;;;;;;;;;;;24.50;99.90;;;23.27;63.17;95306.13;10365678;28;2422;-82
2021/07/24 09:30:45;;;;;;;;;;;24.30;99.90;;;23.09;62.58;95306.63;10353356;28;2212;-82
2021/07/24 09:35:47;;;;;;;;;;;24.20;99.90;;;23.55;61.36;95314.84;10370903;28;2054;-82
2021/07/24 09:40:50;;;;;;;;;;;24.20;99.90;;;24.32;57.68;95288.91;10365777;28;2177;-82
2021/07/24 09:45:53;;;;;;;;;;;24.50;99.90;;;25.46;54.45;95300.34;10372714;28;2160;-81
2021/07/24 09:50:58;;;;;;;;;;;25.40;99.90;;;26.73;50.14;95285.78;10370915;28;2496;-80
2021/07/24 09:56:04;;;;;;;;;;;26.50;99.90;;;26.50;49.18;95283.31;10348644;28;2539;-79
2021/07/24 10:01:08;;;;;;;;;;;27.10;99.90;;;26.82;49.87;95301.94;10371612;28;2961;-80
2021/07/24 10:06:12;;;;;;;;;;;27.20;99.90;;;26.34;50.58;95289.16;10362400;28;2096;-82
2021/07/24 10:11:15;;;;;;;;;;;27.10;99.90;;;26.15;49.41;95297.72;10343406;28;2461;-80
2021/07/24 10:16:17;;;;;;;;;;;26.90;99.90;;;26.34;48.86;95294.66;10348781;28;2520;-81
2021/07/24 10:21:20;;;;;;;;;;;26.70;99.90;;;26.17;49.75;95278.81;10334837;28;2619;-81
2021/07/24 10:26:23;;;;;;;;;;;26.70;99.90;;;25.80;50.62;95282.53;10338290;28;2545;-78
2021/07/24 10:31:26;;;;;;;;;;;26.50;99.90;;;26.17;49.79;95256.78;10354384;28;2553;-80
2021/07/24 10:36:28;;;;;;;;;;;26.60;99.90;;;26.10;49.73;95259.50;10346212;28;2616;-81
2021/07/24 10:41:31;;;;;;;;;;;26.80;99.90;;;26.07;50.50;95241.78;10361234;28;2501;-79
2021/07/24 10:46:34;;;;;;;;;;;26.80;99.90;;;26.52;49.65;95245.13;10358362;28;2409;-81
2021/07/24 10:51:37;;;;;;;;;;;27.00;99.90;;;26.29;49.51;95242.66;10360912;28;2206;-80
2021/07/24 10:56:41;;;;;;;;;;;27.30;99.90;;;27.68;46.44;95237.41;10357853;28;2527;-81
2021/07/24 11:01:43;;;;;;;;;;;28.30;99.40;;;28.62;43.80;95232.38;10363137;28;2540;-79
2021/07/24 11:06:46;;;;;;;;;;;29.80;95.70;;;29.02;41.66;95223.47;10355350;28;2523;-83
2021/07/24 11:11:49;;;;;;;;;;;30.90;91.50;;;28.58;42.54;95220.56;10364990;28;2602;-81
2021/07/24 11:16:53;;;;;;;;;;;30.50;91.10;;;29.29;41.53;95212.59;10357172;28;2538;-79
2021/07/24 11:22:03;;;;;;;;;;;30.80;91.20;;;29.19;41.23;95204.34;10353604;28;2014;-79
2021/07/24 11:27:06;;;;;;;;;;;30.80;89.50;;;29.29;41.37;95218.13;10356662;28;1978;-79
2021/07/24 11:32:09;;;;;;;;;;;31.30;89.00;;;29.80;39.08;95201.84;10364207;28;2540;-81
2021/07/24 11:37:13;;;;;;;;;;;31.50;86.80;;;29.10;39.52;95201.28;10353122;28;2275;-80
2021/07/24 11:42:17;;;;;;;;;;;31.00;85.50;;;28.38;42.39;95207.22;10366664;28;2557;-83
2021/07/24 11:52:38;;;;;;;;;;;29.60;88.00;;;28.22;43.19;95193.84;10375957;28;2285;-80
2021/07/24 11:57:46;;;;;;;;;;;29.10;90.30;;;28.09;41.82;95189.16;10351369;28;1939;-81
2021/07/24 12:03:00;;;;;;;;;;;29.00;89.20;;;29.00;41.74;95186.31;10365490;28;1618;-82
2021/07/24 12:08:17;;;;;;;;;;;29.20;90.50;;;28.89;40.25;95175.31;10367739;28;1599;-79
2021/07/24 12:13:24;;;;;;;;;;;29.40;87.80;;;29.11;39.08;95173.19;10364013;28;1920;-81
2021/07/24 12:18:41;;;;;;;;;;;29.60;86.60;;;29.66;38.57;95171.53;10366496;28;1811;-82
2021/07/24 12:23:54;;;;;;;;;;;30.00;86.90;;;30.34;38.56;95174.31;10359124;28;1647;-83
2021/07/24 12:28:58;;;;;;;;;;;30.50;86.90;;;30.46;37.27;95168.22;10372430;28;1526;-82
2021/07/24 12:34:13;;;;;;;;;;;30.80;84.70;;;29.95;37.60;95167.25;10393532;28;1914;-83
2021/07/24 12:39:17;;;;;;;;;;;30.50;84.10;;;30.24;36.80;95161.41;10370103;28;1480;-84
2021/07/24 12:44:22;;;;;;;;;;;30.60;83.60;;;29.68;38.26;95161.63;10395015;28;1237;-83
2021/07/24 12:49:27;;;;;;;;;;;30.30;84.10;;;30.12;37.31;95157.19;10372082;28;2069;-84
2021/07/24 12:54:39;;;;;;;;;;;30.50;83.40;;;29.28;38.32;95150.13;10379497;28;2151;-84
2021/07/24 12:59:43;;;;;;;;;;;30.40;83.00;;;28.83;38.58;95154.03;10358258;28;1431;-82
2021/07/24 13:04:49;;;;;;;;;;;29.90;82.80;;;29.11;38.67;95155.81;10347452;28;2181;-80
2021/07/24 13:09:52;;;;;;;;;;;29.70;83.70;;;29.56;38.08;95149.06;10340856;28;2091;-79
2021/07/24 13:20:12;;;;;;;;;;;30.20;83.40;;;30.97;35.39;95144.09;10341734;28;2206;-80
2021/07/24 13:25:43;;;;;;;;;;;31.10;82.90;;;30.71;36.22;95148.47;10341660;28;1894;-81
2021/07/24 13:30:46;;;;;;;;;;;31.20;81.90;;;30.06;37.69;95144.97;10335535;28;2049;-79
2021/07/24 13:35:50;;;;;;;;;;;31.10;81.90;;;29.84;37.46;95139.69;10361754;28;1996;-80
2021/07/24 13:40:55;;;;;;;;;;;30.90;81.30;;;29.66;38.14;95132.78;10347254;28;2154;-79
2021/07/24 13:46:10;;;;;;;;;;;30.40;82.60;;;29.14;40.03;95136.41;10341928;28;1974;-80
2021/07/24 13:51:14;;;;;;;;;;;30.10;83.90;;;29.31;38.46;95145.75;10359334;28;2330;-79
2021/07/24 13:56:17;;;;;;;;;;;29.90;82.60;;;29.46;38.75;95149.97;10344200;28;2235;-82
2021/07/24 14:01:28;;;;;;;;;;;30.30;83.00;;;29.84;37.79;95153.53;10345356;28;2226;-80
2021/07/24 14:06:31;;;;;;;;;;;30.30;82.50;;;28.59;43.59;95155.78;10340405;28;2392;-83
2021/07/24 14:11:34;;;;;;;;;;;29.70;86.60;;;28.89;42.30;95171.78;10343827;28;2170;-80
2021/07/24 14:16:37;;;;;;;;;;;29.50;87.50;;;28.23;44.72;95172.50;10359845;28;2207;-79
2021/07/24 14:21:41;;;;;;;;;;;29.10;88.90;;;27.69;45.78;95166.41;10361211;28;2017;-79
2021/07/24 14:26:44;;;;;;;;;;;28.80;89.50;;;27.47;46.49;95187.72;10372261;28;1611;-77
2021/07/24 14:31:50;;;;;;;;;;;28.40;90.30;;;27.16;47.39;95194.81;10375142;28;1559;-79
2021/07/24 14:42:29;;;;;;;;;;;27.60;91.20;;;26.28;46.51;95191.50;10388435;28;1511;-80
2021/07/24 14:47:37;;;;;;;;;;;27.30;89.90;;;26.92;45.77;95179.84;10375347;28;2135;-82
2021/07/24 14:52:40;;;;;;;;;;;27.40;90.50;;;26.77;46.34;95167.22;10374516;28;2017;-81
2021/07/24 14:57:43;;;;;;;;;;;27.50;90.50;;;27.50;44.75;95147.50;10370565;28;1890;-81
2021/07/24 15:02:46;;;;;;;;;;;27.80;90.20;;;27.18;46.70;95151.09;10358171;28;1709;-82
2021/07/24 15:07:51;;;;;;;;;;;27.90;90.90;;;27.18;46.76;95131.78;10351234;28;2362;-81
2021/07/24 15:12:54;;;;;;;;;;;27.90;91.20;;;26.97;47.26;95126.25;10353805;28;1621;-80
2021/07/24 15:17:58;;;;;;;;;;;27.80;91.40;;;26.99;48.15;95118.38;10345872;28;2252;-81
2021/07/24 15:23:08;;;;;;;;;;;27.70;92.60;;;27.50;46.97;95114.38;10362935;28;2223;-80
2021/07/24 15:28:11;;;;;;;;;;;28.00;93.00;;;27.29;47.34;95107.69;10351140;28;2262;-79
2021/07/24 15:33:17;;;;;;;;;;;28.00;92.70;;;26.99;48.38;95107.34;10351865;28;2158;-80
2021/07/24 15:38:32;;;;;;;;;;;27.90;92.50;;;26.61;49.16;95073.88;10359732;28;1962;-79
2021/07/24 15:48:56;;;;;;;;;;;27.40;94.60;;;26.16;50.92;95064.38;10355129;28;1998;-79
2021/07/24 15:54:01;;;;;;;;;;;27.20;95.10;;;26.72;49.78;95062.84;10374212;28;2145;-80
2021/07/24 15:59:15;;;;;;;;;;;27.30;95.60;;;26.50;50.75;95076.63;10366532;28;2575;-79
2021/07/24 16:04:18;;;;;;;;;;;27.30;95.70;;;26.31;51.90;95091.53;10353194;28;2445;-79
2021/07/24 16:09:21;;;;;;;;;;;27.20;97.00;;;25.91;52.69;95089.88;10341845;28;1954;-79
2021/07/24 16:14:24;;;;;;;;;;;27.00;97.30;;;25.70;53.32;95107.06;10350526;28;2126;-80
2021/07/24 16:19:27;;;;;;;;;;;26.70;97.70;;;25.65;53.00;95112.16;10349360;28;1963;-80
2021/07/24 16:24:31;;;;;;;;;;;26.50;97.90;;;25.60;53.47;95105.84;10350368;28;2017;-80
2021/07/24 16:34:53;;;;;;;;;;;26.30;99.30;;;24.97;56.18;95111.72;10356539;28;1945;-80
2021/07/24 16:40:10;;;;;;;;;;;26.10;99.90;;;23.73;69.54;95121.13;10367517;28;1647;-79
2021/07/24 16:45:36;;;;;;;;;;;25.40;99.90;;;22.08;83.07;95130.63;10348958;28;2151;-81
2021/07/24 16:50:40;;;;;;;;;;;23.70;99.90;;;21.72;83.74;95109.19;10349118;28;1177;-82
2021/07/24 16:55:43;;;;;;;;;;;22.80;99.90;;;21.75;87.59;95105.72;10346468;28;1894;-80
2021/07/24 17:01:15;;;;;;;;;;;22.50;99.90;;;21.70;83.86;95111.53;10592053;27;1875;-81
2021/07/24 17:06:21;;;;;;;;;;;22.40;99.90;;;21.54;87.27;95115.09;10565386;28;1671;-83
2021/07/24 17:11:25;;;;;;;;;;;22.40;99.90;;;21.45;88.26;95119.22;10543019;28;1361;-82
2021/07/24 17:16:28;;;;;;;;;;;22.30;99.90;;;21.52;89.04;95161.16;10560478;28;1974;-84
2021/07/24 17:21:45;;;;;;;;;;;22.30;99.90;;;21.41;91.95;95247.63;10534679;28;1811;-82
2021/07/24 17:27:02;;;;;;;;;;;22.30;99.90;;;21.24;93.91;95283.50;10544234;28;1363;-81
2021/07/24 17:32:06;;;;;;;;;;;22.20;99.90;;;20.21;100.00;95297.91;10545432;28;1990;-81
2021/07/24 17:37:10;;;;;;;;;;;21.60;99.90;;;19.66;100.00;95305.69;10517782;28;2164;-81
2021/07/24 17:47:43;;;;;;;;;;;20.30;99.90;;;19.20;100.00;95306.09;10522829;23;1876;-82
2021/07/24 17:52:46;;;;;;;;;;;20.00;99.90;;;19.32;100.00;95315.06;10517818;28;1968;-80
2021/07/24 17:57:51;;;;;;;;;;;20.10;99.90;;;19.20;100.00;95360.59;10525889;28;1914;-81
2021/07/24 18:03:09;;;;;;;;;;;20.00;99.90;;;18.87;100.00;95359.50;10499859;28;2129;-81
2021/07/24 18:08:19;;;;;;;;;;;19.80;99.90;;;18.74;100.00;95327.13;10505889;28;2300;-80
2021/07/24 18:13:23;;;;;;;;;;;19.60;99.90;;;18.73;100.00;95337.22;10476745;28;1665;-82
2021/07/24 18:18:27;;;;;;;;;;;19.50;99.90;;;18.71;100.00;95323.16;10478397;28;1888;-82
2021/07/24 18:23:31;;;;;;;;;;;19.40;99.90;;;18.71;100.00;95323.16;10487154;28;1814;-81
2021/07/24 18:28:34;;;;;;;;;;;19.50;99.90;;;18.79;100.00;95313.31;10489247;28;1880;-82
2021/07/24 18:38:55;;;;;;;;;;;19.60;99.90;;;18.88;100.00;95303.09;10448525;28;2213;-82
2021/07/24 18:44:11;;;;;;;;;;;19.70;99.90;;;18.80;100.00;95298.56;10465734;28;2102;-81
2021/07/24 18:49:19;;;;;;;;;;;19.50;99.90;;;18.71;100.00;95342.22;10465427;28;1870;-80
2021/07/24 18:54:25;;;;;;;;;;;19.60;99.90;;;18.35;100.00;95370.03;10478559;28;2046;-82
2021/07/24 18:59:28;;;;;;;;;;;19.30;99.90;;;18.16;100.00;95370.50;10475318;28;1902;-81
2021/07/24 19:04:31;;;;;;;;;;;19.00;99.90;;;18.15;100.00;95400.78;10478819;28;1795;-80
2021/07/24 19:09:35;;;;;;;;;;;19.00;99.90;;;17.97;100.00;95441.66;10461968;28;2046;-80
2021/07/24 19:14:38;;;;;;;;;;;18.80;99.90;;;17.72;100.00;95437.16;10461489;28;2485;-80
2021/07/24 19:19:42;;;;;;;;;;;18.70;99.90;;;17.52;100.00;95417.72;10445884;28;2262;-80
2021/07/24 19:24:45;;;;;;;;;;;18.50;99.90;;;17.49;100.00;95393.09;10447662;28;2136;-81
2021/07/24 19:29:51;;;;;;;;;;;18.30;99.90;;;17.23;100.00;95363.31;10463332;28;2190;-80
2021/07/24 19:34:56;;;;;;;;;;;18.20;99.90;;;17.09;100.00;95341.81;10471514;28;1746;-80
2021/07/24 19:40:00;;;;;;;;;;;18.00;99.90;;;16.95;100.00;95289.63;10459478;28;2045;-81
2021/07/24 19:45:29;;;;;;;;;;;17.80;99.90;;;16.68;100.00;95242.78;10465090;28;2098;-79
2021/07/24 19:50:32;;;;;;;;;;;17.60;99.90;;;16.69;100.00;95241.66;10474891;28;2222;-80
2021/07/24 19:55:45;;;;;;;;;;;17.50;99.90;;;16.62;100.00;95200.66;10470866;28;2120;-81
2021/07/24 20:00:49;;;;;;;;;;;17.50;99.90;;;16.66;100.00;95203.50;10448604;28;2080;-82
2021/07/24 20:05:52;;;;;;;;;;;17.50;99.90;;;16.63;100.00;95194.09;10485901;28;1870;-80
2021/07/24 20:10:57;;;;;;;;;;;17.50;99.90;;;16.65;100.00;95204.63;10467941;28;1800;-79
2021/07/24 20:16:00;;;;;;;;;;;17.40;99.90;;;16.76;100.00;95197.75;10464048;28;1888;-82
2021/07/24 20:21:18;;;;;;;;;;;17.50;99.90;;;16.65;100.00;95193.78;10466477;28;1991;-84
2021/07/24 20:26:32;;;;;;;;;;;17.50;99.90;;;16.80;100.00;95200.63;10466936;28;1322;-84
2021/07/24 20:31:37;;;;;;;;;;;17.50;99.90;;;16.68;100.00;95229.19;10473985;28;1963;-83
2021/07/24 20:36:41;;;;;;;;;;;17.50;99.90;;;16.57;100.00;95233.38;10473121;28;1930;-81
2021/07/24 20:47:16;;;;;;;;;;;17.40;99.90;;;16.52;100.00;95257.19;10454843;28;1378;-83
2021/07/24 20:52:34;;;;;;;;;;;17.40;99.90;;;16.47;100.00;95263.56;10460295;28;1709;-83
2021/07/24 20:57:45;;;;;;;;;;;17.40;99.90;;;16.53;100.00;95265.00;10460777;28;1981;-83
2021/07/24 21:02:48;;;;;;;;;;;17.40;99.90;;;16.51;100.00;95274.59;10471671;28;1670;-81
2021/07/24 21:07:57;;;;;;;;;;;17.40;99.90;;;16.45;100.00;95257.69;10468638;28;2465;-83
2021/07/24 21:13:22;;;;;;;;;;;17.40;99.90;;;16.43;100.00;95254.50;10467070;28;1285;-82
2021/07/24 21:18:28;;;;;;;;;;;17.30;99.90;;;16.29;100.00;95260.13;10473643;28;1951;-83
2021/07/24 21:23:31;;;;;;;;;;;17.20;99.90;;;16.19;100.00;95236.03;10469359;28;1990;-84
2021/07/24 21:28:38;;;;;;;;;;;17.20;99.90;;;16.27;100.00;95240.63;10454255;28;1869;-83
2021/07/24 21:33:48;;;;;;;;;;;17.20;99.90;;;16.38;100.00;95262.81;10473255;28;1693;-83
2021/07/24 21:38:52;;;;;;;;;;;17.20;99.90;;;16.58;100.00;95289.25;10466201;28;1914;-83
2021/07/24 21:43:59;;;;;;;;;;;17.30;99.90;;;16.58;96.86;95251.25;10459676;28;2110;-84
2021/07/24 21:49:03;;;;;;;;;;;17.40;99.90;;;16.54;97.62;95201.50;10488866;28;2055;-83
2021/07/24 21:59:38;;;;;;;;;;;17.50;99.90;;;16.69;99.42;95285.06;10459619;28;1977;-81
2021/07/24 22:04:55;;;;;;;;;;;17.50;99.90;;;16.75;97.86;95291.94;10454100;28;1977;-83
2021/07/24 22:10:08;;;;;;;;;;;17.50;99.90;;;16.63;100.00;95244.88;10466460;28;1885;-81
2021/07/24 22:15:13;;;;;;;;;;;17.60;99.90;;;16.61;100.00;95245.19;10475517;28;1799;-81
2021/07/24 22:20:17;;;;;;;;;;;17.50;99.90;;;16.43;100.00;95219.25;10471489;28;1906;-82
2021/07/24 22:25:20;;;;;;;;;;;17.40;99.90;;;16.50;100.00;95200.53;10464456;28;1607;-81
2021/07/24 22:30:23;;;;;;;;;;;17.50;99.90;;;16.61;100.00;95215.34;10467732;28;1812;-81
2021/07/24 22:35:47;;;;;;;;;;;17.40;99.90;;;16.59;99.78;95242.00;10448132;28;1765;-82
2021/07/24 22:40:51;;;;;;;;;;;17.50;99.90;;;16.79;100.00;95232.38;10472694;28;1906;-82
2021/07/24 22:45:58;;;;;;;;;;;17.50;99.90;;;16.83;99.82;95235.22;10475047;28;2075;-81
2021/07/24 22:51:02;;;;;;;;;;;17.70;99.90;;;16.82;99.56;95218.16;10478282;28;1858;-82
2021/07/24 22:56:06;;;;;;;;;;;17.70;99.90;;;16.68;100.00;95199.34;10472329;28;1285;-82
2021/07/24 23:01:09;;;;;;;;;;;17.70;99.90;;;16.81;100.00;95194.84;10464922;28;1906;-82
2021/07/24 23:11:57;;;;;;;;;;;17.70;99.90;;;16.67;99.13;95165.19;10458044;28;1679;-83
2021/07/24 23:17:01;;;;;;;;;;;17.70;99.90;;;16.67;100.00;95170.63;10470315;28;1876;-83
2021/07/24 23:22:06;;;;;;;;;;;17.60;99.90;;;16.73;100.00;95182.91;10473955;28;2142;-83
2021/07/24 23:27:31;;;;;;;;;;;17.60;99.90;;;16.65;99.64;95180.19;10455495;28;1516;-82
2021/07/24 23:32:35;;;;;;;;;;;17.60;99.90;;;16.59;99.63;95170.66;10494385;28;1280;-81
2021/07/24 23:37:42;;;;;;;;;;;17.60;99.90;;;16.55;98.96;95169.72;10485834;28;1967;-83
2021/07/24 23:42:53;;;;;;;;;;;17.50;99.90;;;16.51;99.19;95174.19;10468239;28;1996;-83
2021/07/24 23:47:59;;;;;;;;;;;17.50;99.90;;;16.55;100.00;95191.44;10472984;28;1368;-81
2021/07/24 23:53:04;;;;;;;;;;;17.50;99.90;;;16.29;100.00;95195.03;10488057;28;1844;-82
2021/07/24 23:58:21;;;;;;;;;;;17.30;99.90;;;16.26;100.00;95186.72;10478528;28;1974;-81
